Time;durP1;ratioP1;P1;durP2;ratioP2;P2;SDS_P1;SDS_P2;PMS_P1;PMS_P2;Temp;Humidity;BMP_temperature;BMP_pressure;BME280_temperature;BME280_humidity;BME280_pressure;Samples;Min_cycle;Max_cycle;Signal;HPM_P1;HPM_P2
2023/04/21 00:01:28;;;;;;;1999.90;999.90;;;30.70;88.30;;;;;;5051982;28;20085;-70
2023/04/21 00:03:56;;;;;;;1999.90;999.90;;;30.80;89.30;;;;;;5045033;28;20040;-68
2023/04/21 00:06:25;;;;;;;1999.90;999.90;;;31.10;87.90;;;;;;5051876;28;20033;-68
2023/04/21 00:08:53;;;;;;;1999.90;999.90;;;31.00;88.00;;;;;;5050056;28;20053;-68
2023/04/21 00:11:21;;;;;;;1999.90;999.90;;;31.20;87.60;;;;;;5045119;28;20134;-69
2023/04/21 00:13:48;;;;;;;1999.90;999.90;;;31.50;86.00;;;;;;5042874;28;20029;-68
2023/04/21 00:16:15;;;;;;;1999.90;999.90;;;31.20;86.00;;;;;;5044459;28;20154;-68
2023/04/21 00:18:43;;;;;;;1999.90;999.90;;;31.00;87.80;;;;;;5037889;28;20027;-69
2023/04/21 00:21:10;;;;;;;1999.90;999.90;;;31.20;87.60;;;;;;5039429;28;20029;-67
2023/04/21 00:23:37;;;;;;;1999.90;999.90;;;31.30;86.90;;;;;;5044913;28;20021;-68
2023/04/21 00:26:05;;;;;;;1999.90;999.90;;;31.30;86.60;;;;;;5035000;28;20041;-68
2023/04/21 00:28:32;;;;;;;1999.90;999.90;;;31.70;86.20;;;;;;5040619;28;20068;-68
2023/04/21 00:30:59;;;;;;;1999.90;999.90;;;31.80;85.20;;;;;;5040273;28;20074;-68
2023/04/21 00:33:27;;;;;;;1999.90;999.90;;;32.00;84.60;;;;;;5039843;28;20503;-68
2023/04/21 00:35:55;;;;;;;1999.90;999.90;;;32.00;84.30;;;;;;5033284;28;20037;-68
2023/04/21 00:38:23;;;;;;;1999.90;999.90;;;31.60;84.70;;;;;;5039396;28;20032;-68
2023/04/21 00:40:50;;;;;;;1999.90;999.90;;;31.30;85.50;;;;;;5035979;28;20037;-68
2023/04/21 00:43:17;;;;;;;1999.90;999.90;;;31.50;85.90;;;;;;5040427;28;20025;-68
2023/04/21 00:45:48;;;;;;;1999.90;999.90;;;31.70;85.50;;;;;;5036030;28;20048;-68
2023/04/21 00:48:16;;;;;;;1999.90;999.90;;;31.60;84.50;;;;;;5043506;28;20058;-69
2023/04/21 00:50:45;;;;;;;1999.90;999.90;;;31.00;85.10;;;;;;5036523;28;20057;-68
2023/04/21 00:53:14;;;;;;;1999.90;999.90;;;29.80;85.80;;;;;;5040769;28;20039;-68
2023/04/21 00:55:42;;;;;;;1999.90;999.90;;;29.60;88.10;;;;;;5038229;28;20033;-68
2023/04/21 00:58:09;;;;;;;1999.90;999.90;;;30.00;86.40;;;;;;5032694;28;20037;-67
2023/04/21 01:00:38;;;;;;;1999.90;999.90;;;30.40;85.80;;;;;;5037456;28;20464;-69
2023/04/21 01:03:06;;;;;;;1999.90;999.90;;;30.80;84.80;;;;;;5039451;28;20037;-68
2023/04/21 01:05:34;;;;;;;1999.90;999.90;;;31.10;85.60;;;;;;5043057;28;20440;-67
2023/04/21 01:08:02;;;;;;;1999.90;999.90;;;31.50;86.60;;;;;;5048043;28;20411;-67
2023/04/21 01:10:29;;;;;;;1999.90;999.90;;;31.90;85.10;;;;;;5043541;28;20052;-69
2023/04/21 01:12:57;;;;;;;1999.90;999.90;;;32.50;83.50;;;;;;5044345;28;20017;-68
2023/04/21 01:15:26;;;;;;;1999.90;999.90;;;32.20;82.30;;;;;;5042844;28;20028;-68
2023/04/21 01:17:53;;;;;;;1999.90;999.90;;;31.40;83.10;;;;;;5043740;28;20052;-70
2023/04/21 01:20:20;;;;;;;1999.90;999.90;;;30.80;83.60;;;;;;5040506;28;20028;-67
2023/04/21 01:22:50;;;;;;;1999.90;999.90;;;29.80;85.80;;;;;;5040577;28;20484;-67
2023/04/21 01:25:18;;;;;;;1999.90;999.90;;;28.70;86.70;;;;;;5040802;28;20037;-66
2023/04/21 01:27:46;;;;;;;1999.90;999.90;;;27.70;87.50;;;;;;5049841;28;20186;-67
2023/04/21 01:30:13;;;;;;;1999.90;999.90;;;26.80;88.90;;;;;;5050985;28;20069;-67
2023/04/21 01:32:40;;;;;;;1999.90;999.90;;;26.00;90.50;;;;;;5051057;28;20078;-67
2023/04/21 01:35:08;;;;;;;1999.90;999.90;;;25.40;91.30;;;;;;5044873;28;20379;-67
2023/04/21 01:37:35;;;;;;;1999.90;999.90;;;24.90;91.60;;;;;;5045569;28;20392;-67
2023/04/21 01:40:07;;;;;;;1999.90;999.90;;;24.60;92.10;;;;;;5045973;28;20029;-67
2023/04/21 01:42:37;;;;;;;1999.90;999.90;;;24.20;92.20;;;;;;5050251;28;20037;-67
2023/04/21 01:45:05;;;;;;;1999.90;999.90;;;24.00;92.80;;;;;;5039902;28;20108;-67
2023/04/21 01:47:32;;;;;;;1999.90;999.90;;;23.80;93.30;;;;;;5052712;28;20078;-67
2023/04/21 01:50:00;;;;;;;1999.90;999.90;;;23.60;93.70;;;;;;5053096;28;20029;-67
2023/04/21 01:52:27;;;;;;;1999.90;999.90;;;23.60;93.60;;;;;;5051713;28;20024;-67
2023/04/21 01:54:55;;;;;;;1999.90;999.90;;;23.60;94.00;;;;;;5038684;28;20088;-67
2023/04/21 01:57:22;;;;;;;1999.90;999.90;;;23.70;94.10;;;;;;5047467;28;20046;-67
2023/04/21 01:59:50;;;;;;;1999.90;999.90;;;24.10;93.40;;;;;;5047313;28;20117;-67
2023/04/21 02:02:17;;;;;;;1999.90;999.90;;;24.70;92.60;;;;;;5039521;28;20087;-68
2023/04/21 02:04:44;;;;;;;1999.90;999.90;;;25.20;92.10;;;;;;5033206;28;20041;-68
2023/04/21 02:07:11;;;;;;;1999.90;999.90;;;26.30;91.20;;;;;;5040740;28;20391;-68
2023/04/21 02:09:39;;;;;;;1999.90;999.90;;;26.90;90.40;;;;;;5041726;28;20044;-67
2023/04/21 02:12:06;;;;;;;1999.90;999.90;;;27.50;90.40;;;;;;5046942;28;20021;-67
2023/04/21 02:14:33;;;;;;;1999.90;999.90;;;28.20;90.30;;;;;;5047928;28;20032;-67
2023/04/21 02:17:02;;;;;;;1999.90;999.90;;;28.70;89.10;;;;;;5048180;28;20044;-67
2023/04/21 02:19:30;;;;;;;1999.90;999.90;;;28.40;89.40;;;;;;5033645;28;20766;-67
2023/04/21 02:21:57;;;;;;;1999.90;999.90;;;27.70;88.60;;;;;;5045716;28;20043;-67
2023/04/21 02:24:24;;;;;;;1999.90;999.90;;;26.90;88.90;;;;;;5036519;28;20021;-68
2023/04/21 02:26:52;;;;;;;1999.90;999.90;;;26.20;89.80;;;;;;5029202;28;20044;-68
2023/04/21 02:29:19;;;;;;;1999.90;999.90;;;25.50;90.80;;;;;;5034088;28;20039;-67
2023/04/21 02:31:46;;;;;;;1999.90;999.90;;;25.00;91.80;;;;;;5025511;28;20464;-67
2023/04/21 02:34:14;;;;;;;1999.90;999.90;;;24.60;92.70;;;;;;5041201;28;20063;-67
2023/04/21 02:36:41;;;;;;;1999.90;999.90;;;24.20;93.20;;;;;;5043839;28;20037;-67
2023/04/21 02:39:08;;;;;;;1999.90;999.90;;;23.90;93.70;;;;;;5041370;28;20052;-66
2023/04/21 02:41:36;;;;;;;1999.90;999.90;;;23.80;94.10;;;;;;5042629;28;20037;-66
2023/04/21 02:44:03;;;;;;;1999.90;999.90;;;23.70;93.80;;;;;;5046677;28;20032;-68
2023/04/21 02:46:30;;;;;;;1999.90;999.90;;;23.50;94.10;;;;;;5037590;28;20071;-67
2023/04/21 02:48:58;;;;;;;1999.90;999.90;;;23.40;94.10;;;;;;5047173;28;20064;-67
2023/04/21 02:51:25;;;;;;;1999.90;999.90;;;23.40;94.10;;;;;;5054502;28;20033;-67
2023/04/21 02:53:52;;;;;;;1999.90;999.90;;;23.40;93.90;;;;;;5039303;28;20111;-67
2023/04/21 02:56:20;;;;;;;1999.90;999.90;;;23.80;93.70;;;;;;5039828;28;20078;-67
2023/04/21 02:58:47;;;;;;;1999.90;999.90;;;24.90;92.70;;;;;;5034997;28;20025;-70
2023/04/21 03:01:15;;;;;;;1999.90;999.90;;;25.70;91.20;;;;;;5027083;28;20047;-68
2023/04/21 03:03:42;;;;;;;1999.90;999.90;;;26.50;91.30;;;;;;5043174;28;20024;-67
2023/04/21 03:06:10;;;;;;;1999.90;999.90;;;27.30;91.20;;;;;;5025177;28;20104;-68
2023/04/21 03:08:37;;;;;;;1999.90;999.90;;;26.90;90.20;;;;;;5036876;28;20045;-69
2023/04/21 03:11:04;;;;;;;1999.90;999.90;;;26.20;90.40;;;;;;5031029;28;20571;-69
2023/04/21 03:13:31;;;;;;;1999.90;999.90;;;25.50;91.10;;;;;;5036682;28;20044;-68
2023/04/21 03:15:59;;;;;;;1999.90;999.90;;;24.90;91.90;;;;;;5034741;28;20510;-69
2023/04/21 03:18:27;;;;;;;1999.90;999.90;;;24.40;92.20;;;;;;5039950;28;20029;-67
2023/04/21 03:21:00;;;;;;;1999.90;999.90;;;24.10;93.00;;;;;;5039545;28;20384;-67
2023/04/21 03:23:27;;;;;;;1999.90;999.90;;;23.90;93.60;;;;;;5036404;28;20025;-67
2023/04/21 03:25:55;;;;;;;1999.90;999.90;;;23.60;93.10;;;;;;5034805;28;20037;-66
2023/04/21 03:28:22;;;;;;;1999.90;999.90;;;23.50;93.30;;;;;;5035977;28;20036;-66
2023/04/21 03:30:49;;;;;;;1999.90;999.90;;;23.50;93.00;;;;;;5041059;28;20051;-67
2023/04/21 03:33:16;;;;;;;1999.90;999.90;;;23.50;93.00;;;;;;5037830;28;20025;-66
2023/04/21 03:35:44;;;;;;;1999.90;999.90;;;23.50;93.00;;;;;;5033156;28;20048;-67
2023/04/21 03:38:11;;;;;;;1999.90;999.90;;;23.90;93.40;;;;;;5047071;28;20562;-67
2023/04/21 03:40:38;;;;;;;1999.90;999.90;;;24.30;92.90;;;;;;5044656;28;20408;-67
2023/04/21 03:43:06;;;;;;;1999.90;999.90;;;24.70;93.10;;;;;;5040301;28;20039;-67
2023/04/21 03:45:35;;;;;;;1999.90;999.90;;;25.00;93.40;;;;;;5039072;28;20174;-67
2023/04/21 03:48:02;;;;;;;1999.90;999.90;;;25.40;92.70;;;;;;5044038;28;20032;-67
2023/04/21 03:50:30;;;;;;;1999.90;999.90;;;25.40;91.60;;;;;;5046415;28;20499;-67
2023/04/21 03:52:57;;;;;;;1999.90;999.90;;;25.00;91.60;;;;;;5044810;28;20040;-67
2023/04/21 03:55:25;;;;;;;1999.90;999.90;;;24.50;91.80;;;;;;5043490;28;20380;-66
2023/04/21 03:57:52;;;;;;;1999.90;999.90;;;24.20;92.20;;;;;;5044137;28;20480;-66
2023/04/21 04:00:20;;;;;;;1999.90;999.90;;;24.20;92.50;;;;;;5033933;28;20040;-67
2023/04/21 04:02:47;;;;;;;1999.90;999.90;;;24.60;93.50;;;;;;5044924;28;20499;-67
2023/04/21 04:05:14;;;;;;;1999.90;999.90;;;25.10;92.40;;;;;;5041779;28;20025;-67
2023/04/21 04:07:41;;;;;;;1999.90;999.90;;;25.40;91.20;;;;;;5044190;28;20032;-67
2023/04/21 04:10:10;;;;;;;1999.90;999.90;;;25.30;91.20;;;;;;5042436;28;20065;-67
2023/04/21 04:12:37;;;;;;;1999.90;999.90;;;24.70;91.60;;;;;;5044771;28;20048;-67
2023/04/21 04:15:06;;;;;;;1999.90;999.90;;;24.10;92.20;;;;;;5039424;28;20029;-67
2023/04/21 04:17:34;;;;;;;1999.90;999.90;;;23.60;92.90;;;;;;5039792;28;20053;-67
2023/04/21 04:20:03;;;;;;;1999.90;999.90;;;23.30;93.40;;;;;;5033324;28;20025;-67
2023/04/21 04:22:30;;;;;;;1999.90;999.90;;;23.30;93.70;;;;;;5044970;28;20037;-66
2023/04/21 04:24:58;;;;;;;1999.90;999.90;;;23.50;93.80;;;;;;5038246;28;20049;-67
2023/04/21 04:27:25;;;;;;;1999.90;999.90;;;23.80;93.40;;;;;;5038462;28;20746;-66
2023/04/21 04:29:53;;;;;;;1999.90;999.90;;;24.00;92.80;;;;;;5037941;28;20028;-67
2023/04/21 04:32:20;;;;;;;1999.90;999.90;;;24.10;92.10;;;;;;5044690;28;20112;-66
2023/04/21 04:34:47;;;;;;;1999.90;999.90;;;24.30;91.10;;;;;;5029639;28;20036;-66
2023/04/21 04:37:15;;;;;;;1999.90;999.90;;;24.40;91.00;;;;;;5036158;28;20049;-66
2023/04/21 04:39:42;;;;;;;1999.90;999.90;;;24.40;91.40;;;;;;5047565;28;20023;-67
2023/04/21 04:42:10;;;;;;;1999.90;999.90;;;24.50;91.80;;;;;;5048293;28;20040;-66
2023/04/21 04:44:40;;;;;;;1999.90;999.90;;;24.60;91.60;;;;;;5034324;28;20053;-66
2023/04/21 04:47:07;;;;;;;1999.90;999.90;;;24.70;91.70;;;;;;5045543;28;20047;-66
2023/04/21 04:49:35;;;;;;;1999.90;999.90;;;24.90;92.00;;;;;;5042172;28;20578;-66
2023/04/21 04:52:02;;;;;;;1999.90;999.90;;;25.00;92.10;;;;;;5040529;28;20037;-68
2023/04/21 04:54:29;;;;;;;1999.90;999.90;;;25.00;91.50;;;;;;5037463;28;20033;-66
2023/04/21 04:56:57;;;;;;;1999.90;999.90;;;24.70;91.80;;;;;;5044570;28;20452;-66
2023/04/21 04:59:24;;;;;;;1999.90;999.90;;;24.30;92.30;;;;;;5043084;28;20037;-67
2023/04/21 05:01:52;;;;;;;1999.90;999.90;;;23.90;92.50;;;;;;5049727;28;20025;-67
2023/04/21 05:04:19;;;;;;;1999.90;999.90;;;23.60;92.70;;;;;;5042214;28;20025;-67
2023/04/21 05:06:46;;;;;;;1999.90;999.90;;;23.30;93.10;;;;;;5041907;28;20037;-66
2023/04/21 05:09:14;;;;;;;1999.90;999.90;;;23.20;93.20;;;;;;5047216;28;20069;-66
2023/04/21 05:11:41;;;;;;;1999.90;999.90;;;23.30;93.30;;;;;;5046209;28;20028;-67
2023/04/21 05:14:09;;;;;;;1999.90;999.90;;;23.40;93.40;;;;;;5041768;28;20103;-67
2023/04/21 05:16:36;;;;;;;1999.90;999.90;;;23.50;92.80;;;;;;5031100;28;20053;-67
2023/04/21 05:19:04;;;;;;;1999.90;999.90;;;23.60;92.70;;;;;;5044883;28;20040;-68
2023/04/21 05:21:32;;;;;;;1999.90;999.90;;;23.70;92.10;;;;;;5040433;28;20026;-67
2023/04/21 05:23:59;;;;;;;1999.90;999.90;;;23.70;92.20;;;;;;5039560;28;20045;-67
2023/04/21 05:26:28;;;;;;;1999.90;999.90;;;23.70;92.30;;;;;;5035690;28;20032;-69
2023/04/21 05:28:57;;;;;;;1999.90;999.90;;;23.60;92.00;;;;;;5038936;28;20667;-68
2023/04/21 05:31:25;;;;;;;1999.90;999.90;;;23.60;92.10;;;;;;5036704;28;20408;-68
2023/04/21 05:33:53;;;;;;;1999.90;999.90;;;23.40;92.00;;;;;;5046975;28;20028;-67
2023/04/21 05:36:20;;;;;;;1999.90;999.90;;;23.30;92.30;;;;;;5039997;28;20424;-68
2023/04/21 05:38:48;;;;;;;1999.90;999.90;;;23.30;92.30;;;;;;5038211;28;20029;-67
2023/04/21 05:41:15;;;;;;;1999.90;999.90;;;23.30;92.20;;;;;;5038116;28;20039;-67
2023/04/21 05:43:42;;;;;;;1999.90;999.90;;;23.30;92.10;;;;;;5041991;28;20029;-67
2023/04/21 05:46:10;;;;;;;1999.90;999.90;;;23.40;92.30;;;;;;5036789;28;20116;-68
2023/04/21 05:48:39;;;;;;;1999.90;999.90;;;23.50;92.50;;;;;;5045302;28;20594;-68
2023/04/21 05:51:16;;;;;;;1999.90;999.90;;;23.60;92.50;;;;;;5038375;28;20055;-68
2023/04/21 05:53:45;;;;;;;1999.90;999.90;;;23.70;92.00;;;;;;5046490;28;20021;-68
2023/04/21 05:56:13;;;;;;;1999.90;999.90;;;23.80;91.90;;;;;;5046791;28;20045;-68
2023/04/21 05:58:40;;;;;;;1999.90;999.90;;;23.80;91.70;;;;;;5043336;28;20036;-68
2023/04/21 06:01:08;;;;;;;1999.90;999.90;;;23.80;91.60;;;;;;5046882;28;20087;-68
2023/04/21 06:03:36;;;;;;;1999.90;999.90;;;23.90;91.70;;;;;;5050094;28;20586;-68
2023/04/21 06:06:04;;;;;;;1999.90;999.90;;;23.90;91.80;;;;;;5041583;28;20108;-68
2023/04/21 06:08:32;;;;;;;1999.90;999.90;;;23.90;91.30;;;;;;5039223;28;20033;-68
2023/04/21 06:10:59;;;;;;;1999.90;999.90;;;23.90;90.90;;;;;;5044701;28;20063;-66
2023/04/21 06:13:27;;;;;;;1999.90;999.90;;;24.00;91.00;;;;;;5047427;28;20032;-67
2023/04/21 06:15:54;;;;;;;1999.90;999.90;;;24.00;90.90;;;;;;5045937;28;20045;-67
2023/04/21 06:18:23;;;;;;;1999.90;999.90;;;23.90;91.00;;;;;;5037735;28;20488;-67
2023/04/21 06:20:54;;;;;;;1999.90;999.90;;;23.90;90.70;;;;;;5040125;28;20429;-66
2023/04/21 06:23:22;;;;;;;1999.90;999.90;;;23.80;90.90;;;;;;5046304;28;20090;-67
2023/04/21 06:26:04;;;;;;;1999.90;999.90;;;23.80;90.40;;;;;;5044062;28;20036;-66
2023/04/21 06:28:35;;;;;;;1999.90;999.90;;;23.70;90.40;;;;;;5043353;28;20402;-67
2023/04/21 06:31:03;;;;;;;1999.90;999.90;;;23.50;90.50;;;;;;5036016;28;20611;-67
2023/04/21 06:33:30;;;;;;;1999.90;999.90;;;23.50;90.60;;;;;;5047258;28;20068;-67
2023/04/21 06:35:58;;;;;;;1999.90;999.90;;;23.30;90.70;;;;;;5026185;28;20186;-67
2023/04/21 06:38:25;;;;;;;1999.90;999.90;;;23.30;91.40;;;;;;5033308;28;20424;-67
2023/04/21 06:40:52;;;;;;;1999.90;999.90;;;23.10;91.70;;;;;;5039224;28;20037;-67
2023/04/21 06:43:20;;;;;;;1999.90;999.90;;;23.00;92.20;;;;;;5041862;28;20096;-68
2023/04/21 06:45:47;;;;;;;1999.90;999.90;;;22.80;92.50;;;;;;5041362;28;20047;-67
2023/04/21 06:48:15;;;;;;;1999.90;999.90;;;22.60;92.70;;;;;;5051132;28;20439;-68
2023/04/21 06:50:43;;;;;;;1999.90;999.90;;;22.40;93.00;;;;;;5043322;28;20029;-68
2023/04/21 06:53:11;;;;;;;1999.90;999.90;;;22.30;93.20;;;;;;5046806;28;20041;-68
2023/04/21 06:55:38;;;;;;;1999.90;999.90;;;22.20;93.40;;;;;;5040022;28;20036;-67
2023/04/21 06:58:06;;;;;;;1999.90;999.90;;;22.10;93.60;;;;;;5042585;28;20427;-68
2023/04/21 07:00:33;;;;;;;1999.90;999.90;;;22.00;93.70;;;;;;5046522;28;20025;-68
2023/04/21 07:03:00;;;;;;;1999.90;999.90;;;21.90;93.80;;;;;;5056891;28;20028;-67
2023/04/21 07:05:28;;;;;;;1999.90;999.90;;;21.80;93.80;;;;;;5049347;28;20075;-66
2023/04/21 07:07:58;;;;;;;1999.90;999.90;;;21.60;94.00;;;;;;5049694;28;20045;-68
2023/04/21 07:10:30;;;;;;;1999.90;999.90;;;21.60;94.20;;;;;;5050120;28;20059;-67
2023/04/21 07:12:57;;;;;;;1999.90;999.90;;;21.50;94.30;;;;;;5045525;28;20048;-67
2023/04/21 07:15:24;;;;;;;1999.90;999.90;;;21.40;94.50;;;;;;5041612;28;20021;-67
2023/04/21 07:17:55;;;;;;;1999.90;999.90;;;21.30;94.70;;;;;;5059271;28;20514;-66
2023/04/21 07:20:22;;;;;;;1999.90;999.90;;;21.20;95.00;;;;;;5054598;28;20029;-68
2023/04/21 07:22:49;;;;;;;1999.90;999.90;;;21.20;95.20;;;;;;5051832;28;20028;-67
2023/04/21 07:25:16;;;;;;;1999.90;999.90;;;21.20;95.50;;;;;;5038608;28;20090;-68
2023/04/21 07:27:44;;;;;;;1999.90;999.90;;;21.00;95.60;;;;;;5041734;28;20396;-67
2023/04/21 07:30:12;;;;;;;1999.90;999.90;;;20.90;95.80;;;;;;5039046;28;20033;-68
2023/04/21 07:32:39;;;;;;;1999.90;999.90;;;20.80;96.00;;;;;;5044369;28;20024;-66
2023/04/21 07:35:07;;;;;;;1999.90;999.90;;;20.70;96.00;;;;;;5033964;28;20478;-67
2023/04/21 07:37:34;;;;;;;1999.90;999.90;;;20.70;96.10;;;;;;5040758;28;20091;-67
2023/04/21 07:40:02;;;;;;;1999.90;999.90;;;20.60;96.20;;;;;;5038794;28;20036;-68
2023/04/21 07:42:30;;;;;;;1999.90;999.90;;;20.50;96.40;;;;;;5042506;28;20108;-67
2023/04/21 07:44:59;;;;;;;1999.90;999.90;;;20.20;96.70;;;;;;5043559;28;20435;-67
2023/04/21 07:47:27;;;;;;;1999.90;999.90;;;20.00;97.40;;;;;;5043358;28;20033;-67
2023/04/21 07:49:55;;;;;;;1999.90;999.90;;;19.80;97.70;;;;;;5047911;28;20035;-67
2023/04/21 07:52:22;;;;;;;1999.90;999.90;;;19.70;98.10;;;;;;5045585;28;20090;-67
2023/04/21 07:54:50;;;;;;;1999.90;999.90;;;19.60;98.30;;;;;;5040061;28;20135;-67
2023/04/21 07:57:17;;;;;;;1999.90;999.90;;;19.40;98.60;;;;;;5053376;28;20376;-67
2023/04/21 07:59:44;;;;;;;1999.90;999.90;;;19.30;99.00;;;;;;5043836;28;20021;-67
2023/04/21 08:02:12;;;;;;;1999.90;999.90;;;19.20;99.00;;;;;;5045769;28;20048;-68
2023/04/21 08:04:39;;;;;;;1999.90;999.90;;;19.20;99.20;;;;;;5048007;28;20029;-68
2023/04/21 08:07:08;;;;;;;1999.90;999.90;;;19.20;99.40;;;;;;5036035;28;20029;-68
2023/04/21 08:09:36;;;;;;;1999.90;999.90;;;19.20;99.40;;;;;;5029141;28;21053;-68
2023/04/21 08:12:04;;;;;;;1999.90;999.90;;;19.20;99.60;;;;;;5037436;28;20036;-68
2023/04/21 08:14:31;;;;;;;1999.90;999.90;;;19.20;99.60;;;;;;5031906;28;20044;-67
2023/04/21 08:16:59;;;;;;;1999.90;999.90;;;19.20;99.90;;;;;;5043636;28;20652;-67
2023/04/21 08:19:26;;;;;;;1999.90;999.90;;;19.10;99.90;;;;;;5042071;28;20151;-67
2023/04/21 08:21:54;;;;;;;1999.90;999.90;;;19.00;99.90;;;;;;5035148;28;22593;-68
2023/04/21 08:24:21;;;;;;;1999.90;999.90;;;19.00;99.90;;;;;;5032964;28;20058;-68
2023/04/21 08:26:48;;;;;;;1999.90;999.90;;;18.90;99.90;;;;;;5037522;28;20151;-68
2023/04/21 08:29:16;;;;;;;1999.90;999.90;;;18.80;99.90;;;;;;5033827;28;20025;-69
2023/04/21 08:31:45;;;;;;;1999.90;999.90;;;18.70;99.90;;;;;;5034185;28;20063;-68
2023/04/21 08:34:12;;;;;;;1999.90;999.90;;;18.60;99.90;;;;;;5039636;28;20052;-69
2023/04/21 08:36:41;;;;;;;1999.90;999.90;;;18.50;99.90;;;;;;5034975;28;20037;-69
2023/04/21 08:39:09;;;;;;;1999.90;999.90;;;18.40;99.90;;;;;;5032006;28;20033;-68
2023/04/21 08:41:40;;;;;;;1999.90;999.90;;;18.20;99.90;;;;;;5036363;28;20029;-67
2023/04/21 08:44:10;;;;;;;1999.90;999.90;;;18.10;99.90;;;;;;5030800;28;20037;-68
2023/04/21 08:46:38;;;;;;;1999.90;999.90;;;18.00;99.90;;;;;;5033516;28;20075;-68
2023/04/21 08:49:05;;;;;;;1999.90;999.90;;;17.90;99.90;;;;;;5027681;28;20026;-68
2023/04/21 08:51:33;;;;;;;1999.90;999.90;;;17.80;99.90;;;;;;5030409;28;20029;-69
2023/04/21 08:54:01;;;;;;;1999.90;999.90;;;17.70;99.90;;;;;;5032541;28;20059;-69
2023/04/21 08:56:28;;;;;;;1999.90;999.90;;;17.70;99.90;;;;;;5030580;28;20314;-68
2023/04/21 08:58:56;;;;;;;1999.90;999.90;;;17.70;99.90;;;;;;5030718;28;20052;-68
2023/04/21 09:01:24;;;;;;;1999.90;999.90;;;17.60;99.90;;;;;;5034813;28;20053;-69
2023/04/21 09:03:51;;;;;;;1999.90;999.90;;;17.50;99.90;;;;;;5050491;28;20074;-69
2023/04/21 09:06:18;;;;;;;1999.90;999.90;;;17.40;99.90;;;;;;5044966;28;20032;-68
2023/04/21 09:08:56;;;;;;;1999.90;999.90;;;17.40;99.90;;;;;;5042657;28;20055;-69
2023/04/21 09:11:24;;;;;;;1999.90;999.90;;;17.30;99.90;;;;;;5047970;28;20064;-68
2023/04/21 09:13:57;;;;;;;1999.90;999.90;;;17.30;99.90;;;;;;5037685;28;20041;-68
2023/04/21 09:16:24;;;;;;;1999.90;999.90;;;17.20;99.90;;;;;;5043561;28;20373;-68
2023/04/21 09:18:52;;;;;;;1999.90;999.90;;;17.20;99.90;;;;;;5041988;28;20021;-68
2023/04/21 09:21:19;;;;;;;1999.90;999.90;;;17.10;99.90;;;;;;5045457;28;20036;-68
2023/04/21 09:23:52;;;;;;;1999.90;999.90;;;17.00;99.90;;;;;;5029357;28;20029;-69
2023/04/21 09:26:24;;;;;;;1999.90;999.90;;;17.00;99.90;;;;;;5038406;28;20029;-69
2023/04/21 09:28:52;;;;;;;1999.90;999.90;;;17.00;99.90;;;;;;5043275;28;20033;-70
2023/04/21 09:31:23;;;;;;;1999.90;999.90;;;16.90;99.90;;;;;;5031421;28;20056;-69
2023/04/21 09:33:54;;;;;;;1999.90;999.90;;;16.90;99.90;;;;;;5025282;28;20112;-69
2023/04/21 09:36:30;;;;;;;1999.90;999.90;;;16.80;99.90;;;;;;5028052;28;20037;-69
2023/04/21 09:39:00;;;;;;;1999.90;999.90;;;16.80;99.90;;;;;;5028921;28;20033;-69
2023/04/21 09:41:28;;;;;;;1999.90;999.90;;;16.80;99.90;;;;;;5031651;28;20062;-69
2023/04/21 09:43:59;;;;;;;1999.90;999.90;;;16.70;99.90;;;;;;5031792;28;20052;-69
2023/04/21 09:46:28;;;;;;;1999.90;999.90;;;16.70;99.90;;;;;;5032599;28;20383;-68
2023/04/21 09:49:01;;;;;;;1999.90;999.90;;;16.60;99.90;;;;;;5035115;28;20091;-69
2023/04/21 09:51:33;;;;;;;1999.90;999.90;;;16.60;99.90;;;;;;5032918;28;21321;-69
2023/04/21 09:54:05;;;;;;;1999.90;999.90;;;16.50;99.90;;;;;;5033684;28;20120;-69
2023/04/21 09:56:40;;;;;;;1999.90;999.90;;;16.50;99.90;;;;;;5032256;28;20120;-68
2023/04/21 09:59:12;;;;;;;1999.90;999.90;;;16.50;99.90;;;;;;5038575;28;20098;-68
2023/04/21 10:01:40;;;;;;;1999.90;999.90;;;16.40;99.90;;;;;;5032346;28;20066;-67
2023/04/21 10:04:07;;;;;;;1999.90;999.90;;;16.40;99.90;;;;;;5031167;28;20466;-67
2023/04/21 10:06:35;;;;;;;1999.90;999.90;;;16.40;99.90;;;;;;5030276;28;20032;-68
2023/04/21 10:09:05;;;;;;;1999.90;999.90;;;16.30;99.90;;;;;;5030680;28;20041;-70
2023/04/21 10:11:33;;;;;;;1999.90;999.90;;;16.30;99.90;;;;;;5037998;28;20171;-68
2023/04/21 10:14:00;;;;;;;1999.90;999.90;;;16.20;99.90;;;;;;5042251;28;20109;-68
2023/04/21 10:16:27;;;;;;;1999.90;999.90;;;16.20;99.90;;;;;;5041192;28;20038;-68
2023/04/21 10:18:55;;;;;;;1999.90;999.90;;;16.10;99.90;;;;;;5052631;28;20044;-67
2023/04/21 10:21:23;;;;;;;1999.90;999.90;;;16.10;99.90;;;;;;5041782;28;20021;-69
2023/04/21 10:23:52;;;;;;;1999.90;999.90;;;16.00;99.90;;;;;;5039028;28;20369;-70
2023/04/21 10:26:21;;;;;;;1999.90;999.90;;;16.00;99.90;;;;;;5052261;28;20067;-68
2023/04/21 10:29:00;;;;;;;1999.90;999.90;;;16.00;99.90;;;;;;5064006;28;20029;-68
2023/04/21 10:31:32;;;;;;;1999.90;999.90;;;16.00;99.90;;;;;;5046966;28;20032;-69
2023/04/21 10:34:10;;;;;;;1999.90;999.90;;;15.90;99.90;;;;;;5052924;28;20037;-69
2023/04/21 10:36:46;;;;;;;1999.90;999.90;;;15.90;99.90;;;;;;5057081;28;20037;-68
2023/04/21 10:39:38;;;;;;;1999.90;999.90;;;15.80;99.90;;;;;;5056043;28;20037;-68
2023/04/21 10:42:25;;;;;;;1999.90;999.90;;;15.80;99.90;;;;;;5052233;28;20487;-68
2023/04/21 10:45:00;;;;;;;1999.90;999.90;;;15.80;99.90;;;;;;5049479;28;20040;-69
2023/04/21 10:47:47;;;;;;;1999.90;999.90;;;15.80;99.90;;;;;;5056897;28;20035;-69
2023/04/21 10:50:44;;;;;;;1999.90;999.90;;;15.70;99.90;;;;;;5054555;28;20104;-67
2023/04/21 10:53:12;;;;;;;1999.90;999.90;;;15.70;99.90;;;;;;5053009;28;20419;-68
2023/04/21 10:55:41;;;;;;;1999.90;999.90;;;15.70;99.90;;;;;;5052987;28;20025;-68
2023/04/21 10:58:09;;;;;;;1999.90;999.90;;;15.60;99.90;;;;;;5048281;28;20757;-68
2023/04/21 11:00:38;;;;;;;1999.90;999.90;;;15.60;99.90;;;;;;5052989;28;20467;-68
2023/04/21 11:03:07;;;;;;;1999.90;999.90;;;15.50;99.90;;;;;;5052717;28;20064;-68
2023/04/21 11:05:39;;;;;;;1999.90;999.90;;;15.50;99.90;;;;;;5052491;28;20559;-69
2023/04/21 11:08:13;;;;;;;1999.90;999.90;;;15.50;99.90;;;;;;5053403;28;20033;-68
2023/04/21 11:10:55;;;;;;;1999.90;999.90;;;15.50;99.90;;;;;;5057165;28;20044;-67
2023/04/21 11:13:32;;;;;;;1999.90;999.90;;;15.50;99.90;;;;;;5055065;28;20036;-68
2023/04/21 11:16:02;;;;;;;1999.90;999.90;;;15.40;99.90;;;;;;5057805;28;20045;-68
2023/04/21 11:18:48;;;;;;;1999.90;999.90;;;15.30;99.90;;;;;;5056582;28;20033;-67
2023/04/21 11:21:17;;;;;;;1999.90;999.90;;;15.30;99.90;;;;;;5056596;28;20048;-68
2023/04/21 11:23:52;;;;;;;1999.90;999.90;;;15.30;99.90;;;;;;5057110;28;20037;-69
2023/04/21 11:26:31;;;;;;;1999.90;999.90;;;15.30;99.90;;;;;;5048339;28;20044;-68
2023/04/21 11:29:09;;;;;;;1999.90;999.90;;;15.20;99.90;;;;;;5043982;28;20800;-67
2023/04/21 11:31:38;;;;;;;1999.90;999.90;;;15.20;99.90;;;;;;5042101;28;20083;-68
2023/04/21 11:34:06;;;;;;;1999.90;999.90;;;15.20;99.90;;;;;;5043605;28;20386;-67
2023/04/21 11:36:41;;;;;;;1999.90;999.90;;;15.10;99.90;;;;;;5043483;28;20036;-69
2023/04/21 11:39:11;;;;;;;1999.90;999.90;;;15.10;99.90;;;;;;5044027;28;20053;-69
2023/04/21 11:41:43;;;;;;;1999.90;999.90;;;15.00;99.90;;;;;;5047763;28;20033;-69
2023/04/21 11:44:12;;;;;;;1999.90;999.90;;;15.00;99.90;;;;;;5037314;28;20621;-68
2023/04/21 11:46:48;;;;;;;1999.90;999.90;;;15.00;99.90;;;;;;5047459;28;20056;-68
2023/04/21 11:49:17;;;;;;;1999.90;999.90;;;14.90;99.90;;;;;;5045652;28;20029;-68
2023/04/21 11:51:45;;;;;;;1999.90;999.90;;;14.90;99.90;;;;;;5049712;28;20025;-68
2023/04/21 11:54:14;;;;;;;1999.90;999.90;;;14.80;99.90;;;;;;5043214;28;20032;-67
2023/04/21 11:56:46;;;;;;;1999.90;999.90;;;14.80;99.90;;;;;;5053001;28;20159;-67
2023/04/21 11:59:18;;;;;;;1999.90;999.90;;;14.80;99.90;;;;;;5045250;28;20059;-68
2023/04/21 12:01:47;;;;;;;1999.90;999.90;;;14.80;99.90;;;;;;5044194;28;20047;-68
2023/04/21 12:04:15;;;;;;;1999.90;999.90;;;14.80;99.90;;;;;;5038627;28;20033;-68
2023/04/21 12:06:44;;;;;;;1999.90;999.90;;;14.70;99.90;;;;;;5045737;28;20391;-68